Time;durP1;ratioP1;P1;durP2;ratioP2;P2;SDS_P1;SDS_P2;PMS_P1;PMS_P2;Temp;Humidity;BMP_temperature;BMP_pressure;BME280_temperature;BME280_humidity;BME280_pressure;Samples;Min_cycle;Max_cycle;Signal;HPM_P1;HPM_P2
2022/09/17 00:01:31;;;;;;;14.00;3.53;;;;;;;;;;5051125;28;20458;-81
2022/09/17 00:04:03;;;;;;;10.55;3.13;;;;;;;;;;5040591;28;20052;-81
2022/09/17 00:06:29;;;;;;;18.27;3.70;;;;;;;;;;5044738;28;20095;-83
2022/09/17 00:08:55;;;;;;;15.65;3.10;;;;;;;;;;5047670;28;20123;-82
2022/09/17 00:11:27;;;;;;;7.68;2.38;;;;;;;;;;5045927;28;20063;-81
2022/09/17 00:13:53;;;;;;;10.80;2.63;;;;;;;;;;5049196;28;20049;-82
2022/09/17 00:16:39;;;;;;;13.35;3.10;;;;;;;;;;5043794;28;20053;-82
2022/09/17 00:19:07;;;;;;;12.02;2.92;;;;;;;;;;5046797;28;20500;-82
2022/09/17 00:21:33;;;;;;;9.10;2.45;;;;;;;;;;5044565;28;20057;-83
2022/09/17 00:24:00;;;;;;;8.52;2.20;;;;;;;;;;5050206;28;20059;-82
2022/09/17 00:26:26;;;;;;;10.60;2.60;;;;;;;;;;5051257;28;20049;-83
2022/09/17 00:28:53;;;;;;;10.50;2.40;;;;;;;;;;5049710;28;20117;-83
2022/09/17 00:31:20;;;;;;;8.98;2.67;;;;;;;;;;5050863;28;20057;-83
2022/09/17 00:33:47;;;;;;;6.88;2.58;;;;;;;;;;5043655;28;20103;-82
2022/09/17 00:36:13;;;;;;;7.75;2.40;;;;;;;;;;5046240;28;20417;-83
2022/09/17 00:38:39;;;;;;;14.30;2.90;;;;;;;;;;5046829;28;20049;-82
2022/09/17 00:41:06;;;;;;;9.18;2.50;;;;;;;;;;5040357;28;20049;-80
2022/09/17 00:43:37;;;;;;;4.75;1.65;;;;;;;;;;5041310;28;20499;-81
2022/09/17 00:46:04;;;;;;;4.22;1.63;;;;;;;;;;5046529;28;20060;-81
2022/09/17 00:48:31;;;;;;;6.68;1.88;;;;;;;;;;5045333;28;20033;-81
2022/09/17 00:51:00;;;;;;;4.78;1.70;;;;;;;;;;5045566;28;20091;-81
2022/09/17 00:53:27;;;;;;;7.65;1.98;;;;;;;;;;5042718;28;20081;-81
2022/09/17 00:56:25;;;;;;;5.07;2.00;;;;;;;;;;5046394;28;20053;-81
2022/09/17 00:58:52;;;;;;;7.60;2.05;;;;;;;;;;5023834;28;20057;-80
2022/09/17 01:01:18;;;;;;;9.20;2.17;;;;;;;;;;5049264;28;20095;-80
2022/09/17 01:03:44;;;;;;;8.57;2.00;;;;;;;;;;5047354;28;20041;-80
2022/09/17 01:06:13;;;;;;;9.93;2.67;;;;;;;;;;5044202;28;20057;-81
2022/09/17 01:08:42;;;;;;;11.02;2.78;;;;;;;;;;5047694;28;20106;-81
2022/09/17 01:11:26;;;;;;;13.13;2.78;;;;;;;;;;5046893;28;20053;-82
2022/09/17 01:13:52;;;;;;;7.70;2.58;;;;;;;;;;5047818;28;20424;-81
2022/09/17 01:16:37;;;;;;;10.82;3.33;;;;;;;;;;5049628;28;20059;-80
2022/09/17 01:19:22;;;;;;;18.90;3.83;;;;;;;;;;5049243;28;20052;-80
2022/09/17 01:21:59;;;;;;;6.38;2.30;;;;;;;;;;5047910;28;20064;-79
2022/09/17 01:24:39;;;;;;;5.78;1.77;;;;;;;;;;5044064;28;20059;-80
2022/09/17 01:27:24;;;;;;;7.30;2.05;;;;;;;;;;5048187;28;20064;-80
2022/09/17 01:30:05;;;;;;;8.45;2.20;;;;;;;;;;5049129;28;20063;-80
2022/09/17 01:32:46;;;;;;;10.35;2.40;;;;;;;;;;5034765;28;20056;-81
2022/09/17 01:35:18;;;;;;;13.02;2.47;;;;;;;;;;5049863;28;20396;-81
2022/09/17 01:37:50;;;;;;;9.25;2.25;;;;;;;;;;5049287;28;20044;-80
2022/09/17 01:40:22;;;;;;;8.98;2.30;;;;;;;;;;5050096;28;20055;-80
2022/09/17 01:43:07;;;;;;;11.38;2.50;;;;;;;;;;5046604;28;20549;-81
2022/09/17 01:45:44;;;;;;;10.13;2.70;;;;;;;;;;5048022;28;20124;-81
2022/09/17 01:48:13;;;;;;;9.13;2.47;;;;;;;;;;5043429;28;20071;-80
2022/09/17 01:50:42;;;;;;;8.65;2.80;;;;;;;;;;5048563;28;20487;-81
2022/09/17 01:53:10;;;;;;;11.75;2.72;;;;;;;;;;5050966;28;20041;-81
2022/09/17 01:55:38;;;;;;;20.63;3.35;;;;;;;;;;5050355;28;20431;-82
2022/09/17 01:58:07;;;;;;;23.42;3.63;;;;;;;;;;5037570;28;20057;-81
2022/09/17 02:00:34;;;;;;;6.90;2.30;;;;;;;;;;5049631;28;20769;-81
2022/09/17 02:03:03;;;;;;;19.92;3.55;;;;;;;;;;5038431;28;20049;-81
2022/09/17 02:05:34;;;;;;;21.98;4.00;;;;;;;;;;5050028;28;20047;-82
2022/09/17 02:08:14;;;;;;;12.00;3.17;;;;;;;;;;5043456;28;20041;-80
2022/09/17 02:10:43;;;;;;;14.27;2.60;;;;;;;;;;5045411;28;20076;-80
2022/09/17 02:13:33;;;;;;;13.98;3.10;;;;;;;;;;5043423;28;20045;-80
2022/09/17 02:16:05;;;;;;;11.32;2.65;;;;;;;;;;5033086;28;20049;-80
2022/09/17 02:18:37;;;;;;;11.00;2.47;;;;;;;;;;5044662;28;20179;-81
2022/09/17 02:21:29;;;;;;;16.33;3.00;;;;;;;;;;5047898;28;20056;-80
2022/09/17 02:24:04;;;;;;;11.35;2.88;;;;;;;;;;5018157;28;20088;-80
2022/09/17 02:26:31;;;;;;;11.65;2.92;;;;;;;;;;5045117;28;20053;-81
2022/09/17 02:29:01;;;;;;;9.48;3.00;;;;;;;;;;5042116;28;20068;-80
2022/09/17 02:31:27;;;;;;;7.22;2.42;;;;;;;;;;5047455;28;20092;-80
2022/09/17 02:33:56;;;;;;;10.90;2.50;;;;;;;;;;5040928;28;20063;-81
2022/09/17 02:36:23;;;;;;;10.57;2.45;;;;;;;;;;5045104;28;20048;-81
2022/09/17 02:38:57;;;;;;;14.40;3.25;;;;;;;;;;5047562;28;20074;-83
2022/09/17 02:41:25;;;;;;;11.18;3.38;;;;;;;;;;5047698;28;20127;-81
2022/09/17 02:44:00;;;;;;;14.77;3.70;;;;;;;;;;5048593;28;20202;-81
2022/09/17 02:46:42;;;;;;;16.17;3.53;;;;;;;;;;5047673;28;20052;-81
2022/09/17 02:49:08;;;;;;;14.20;3.30;;;;;;;;;;5046576;28;20037;-80
2022/09/17 02:51:38;;;;;;;10.68;2.80;;;;;;;;;;5050441;28;20381;-81
2022/09/17 02:54:16;;;;;;;10.38;2.70;;;;;;;;;;5048031;28;20049;-81
2022/09/17 02:56:45;;;;;;;5.95;1.98;;;;;;;;;;5043986;28;20052;-80
2022/09/17 02:59:23;;;;;;;10.43;2.20;;;;;;;;;;5046217;28;20041;-81
2022/09/17 03:02:09;;;;;;;7.95;2.38;;;;;;;;;;5042001;28;20045;-80
2022/09/17 03:04:37;;;;;;;10.93;2.40;;;;;;;;;;4994364;28;20110;-82
2022/09/17 03:07:08;;;;;;;12.80;2.85;;;;;;;;;;5044966;28;20484;-80
2022/09/17 03:09:34;;;;;;;7.47;2.15;;;;;;;;;;5047900;28;20365;-81
2022/09/17 03:12:01;;;;;;;9.65;2.00;;;;;;;;;;5043000;28;20037;-79
2022/09/17 03:14:27;;;;;;;8.90;2.60;;;;;;;;;;5045871;28;20044;-80
2022/09/17 03:16:53;;;;;;;9.55;2.40;;;;;;;;;;5046295;28;20041;-80
2022/09/17 03:19:19;;;;;;;9.45;1.83;;;;;;;;;;5046821;28;20130;-80
2022/09/17 03:21:45;;;;;;;8.50;2.03;;;;;;;;;;5049922;28;20099;-80
2022/09/17 03:24:11;;;;;;;8.32;2.45;;;;;;;;;;5041520;28;20041;-79
2022/09/17 03:26:38;;;;;;;10.38;2.58;;;;;;;;;;5041861;28;20055;-80
2022/09/17 03:29:04;;;;;;;9.05;2.25;;;;;;;;;;5044954;28;20238;-80
2022/09/17 03:31:30;;;;;;;7.97;2.70;;;;;;;;;;5038706;28;20053;-81
2022/09/17 03:33:57;;;;;;;8.80;2.33;;;;;;;;;;5046270;28;20048;-80
2022/09/17 03:36:23;;;;;;;9.38;2.20;;;;;;;;;;5038361;28;20559;-80
2022/09/17 03:38:53;;;;;;;7.40;1.98;;;;;;;;;;5042129;28;20041;-80
2022/09/17 03:41:19;;;;;;;7.22;2.42;;;;;;;;;;5046715;28;20045;-81
2022/09/17 03:43:45;;;;;;;9.65;2.17;;;;;;;;;;5047140;28;20558;-80
2022/09/17 03:46:11;;;;;;;9.15;2.30;;;;;;;;;;5043404;28;20103;-80
2022/09/17 03:48:38;;;;;;;8.68;2.20;;;;;;;;;;5044484;28;20130;-81
2022/09/17 03:51:05;;;;;;;7.97;1.90;;;;;;;;;;5029731;28;20497;-81
2022/09/17 03:53:31;;;;;;;7.05;2.40;;;;;;;;;;5035372;28;20371;-81
2022/09/17 03:55:58;;;;;;;5.80;1.70;;;;;;;;;;5034434;28;20049;-81
2022/09/17 03:58:24;;;;;;;4.70;1.55;;;;;;;;;;5047175;28;20072;-81
2022/09/17 04:00:52;;;;;;;4.90;2.03;;;;;;;;;;5047200;28;20045;-81
2022/09/17 04:03:18;;;;;;;6.28;1.90;;;;;;;;;;5042530;28;20547;-80
2022/09/17 04:05:44;;;;;;;6.32;1.90;;;;;;;;;;5047199;28;20095;-81
2022/09/17 04:08:11;;;;;;;6.03;2.70;;;;;;;;;;5049240;28;20484;-81
2022/09/17 04:10:37;;;;;;;10.13;2.92;;;;;;;;;;5047539;28;20091;-81
2022/09/17 04:13:03;;;;;;;8.88;2.25;;;;;;;;;;5042389;28;20477;-82
2022/09/17 04:15:29;;;;;;;8.45;2.17;;;;;;;;;;5051075;28;20053;-80
2022/09/17 04:17:58;;;;;;;9.85;2.55;;;;;;;;;;5051046;28;20052;-82
2022/09/17 04:20:25;;;;;;;11.40;2.85;;;;;;;;;;5048363;28;20044;-80
2022/09/17 04:22:51;;;;;;;9.18;2.80;;;;;;;;;;5034124;28;20084;-80
2022/09/17 04:25:17;;;;;;;7.68;2.15;;;;;;;;;;5050078;28;20579;-80
2022/09/17 04:27:44;;;;;;;6.13;1.80;;;;;;;;;;5047716;28;20480;-80
2022/09/17 04:30:10;;;;;;;8.95;2.05;;;;;;;;;;5046933;28;20045;-81
2022/09/17 04:32:36;;;;;;;9.65;2.03;;;;;;;;;;5047617;28;20121;-81
2022/09/17 04:35:02;;;;;;;10.65;2.83;;;;;;;;;;5049434;28;20435;-82
2022/09/17 04:37:28;;;;;;;7.80;2.20;;;;;;;;;;5044341;28;20044;-81
2022/09/17 04:39:54;;;;;;;10.93;2.42;;;;;;;;;;5048821;28;20405;-81
2022/09/17 04:42:20;;;;;;;7.40;2.10;;;;;;;;;;5050898;28;20040;-81
2022/09/17 04:44:46;;;;;;;6.00;2.28;;;;;;;;;;5043970;28;20044;-81
2022/09/17 04:47:12;;;;;;;11.45;2.75;;;;;;;;;;5046276;28;20373;-81
2022/09/17 04:49:38;;;;;;;6.63;2.38;;;;;;;;;;5047286;28;20168;-81
2022/09/17 04:52:04;;;;;;;9.18;2.03;;;;;;;;;;5049576;28;20414;-81
2022/09/17 04:54:30;;;;;;;11.30;2.30;;;;;;;;;;5046425;28;20045;-81
2022/09/17 04:56:56;;;;;;;6.88;1.83;;;;;;;;;;5041450;28;20048;-81
2022/09/17 04:59:23;;;;;;;8.82;2.08;;;;;;;;;;5045594;28;20933;-81
2022/09/17 05:01:49;;;;;;;12.65;2.58;;;;;;;;;;5044274;28;20119;-81
2022/09/17 05:04:15;;;;;;;5.45;1.65;;;;;;;;;;5044436;28;20324;-81
2022/09/17 05:06:41;;;;;;;5.40;1.88;;;;;;;;;;5041775;28;20118;-81
2022/09/17 05:09:07;;;;;;;7.60;2.10;;;;;;;;;;5044582;28;21981;-81
2022/09/17 05:11:33;;;;;;;4.15;1.80;;;;;;;;;;5049065;28;20084;-81
2022/09/17 05:13:59;;;;;;;6.20;1.80;;;;;;;;;;5044045;28;20037;-82
2022/09/17 05:16:25;;;;;;;5.40;1.75;;;;;;;;;;5044996;28;20067;-80
2022/09/17 05:18:51;;;;;;;2.67;1.40;;;;;;;;;;5049099;28;20392;-81
2022/09/17 05:21:17;;;;;;;5.93;1.73;;;;;;;;;;5048906;28;20044;-81
2022/09/17 05:23:43;;;;;;;6.40;2.00;;;;;;;;;;5046727;28;20045;-82
2022/09/17 05:26:09;;;;;;;7.97;1.77;;;;;;;;;;5043939;28;20040;-81
2022/09/17 05:28:35;;;;;;;4.85;1.90;;;;;;;;;;5045330;28;20507;-81
2022/09/17 05:31:02;;;;;;;5.10;1.60;;;;;;;;;;5046925;28;20087;-82
2022/09/17 05:33:28;;;;;;;8.18;1.60;;;;;;;;;;5047617;28;20049;-81
2022/09/17 05:35:54;;;;;;;4.13;1.73;;;;;;;;;;5046906;28;20508;-81
2022/09/17 05:38:20;;;;;;;7.50;2.05;;;;;;;;;;5048373;28;20682;-81
2022/09/17 05:40:47;;;;;;;10.05;2.53;;;;;;;;;;5051151;28;20103;-82
2022/09/17 05:43:14;;;;;;;17.85;2.88;;;;;;;;;;5045901;28;20072;-80
2022/09/17 05:45:40;;;;;;;7.70;2.22;;;;;;;;;;5046968;28;20412;-82
2022/09/17 05:48:09;;;;;;;6.53;2.28;;;;;;;;;;5047966;28;20041;-82
2022/09/17 05:50:36;;;;;;;5.57;1.70;;;;;;;;;;5039363;28;20464;-81
2022/09/17 05:53:04;;;;;;;6.63;2.15;;;;;;;;;;5045630;28;20057;-80
2022/09/17 05:55:30;;;;;;;7.68;2.40;;;;;;;;;;5049133;28;20052;-80
2022/09/17 05:57:56;;;;;;;10.05;1.90;;;;;;;;;;5044019;28;20044;-80
2022/09/17 06:00:22;;;;;;;8.23;2.10;;;;;;;;;;5043586;28;20056;-80
2022/09/17 06:02:57;;;;;;;10.32;2.05;;;;;;;;;;5042835;28;20412;-80
2022/09/17 06:05:24;;;;;;;8.48;2.17;;;;;;;;;;5041275;28;20048;-80
2022/09/17 06:07:51;;;;;;;7.93;1.90;;;;;;;;;;5048452;28;20116;-80
2022/09/17 06:10:17;;;;;;;7.43;2.30;;;;;;;;;;5047590;28;20068;-80
2022/09/17 06:12:43;;;;;;;6.95;2.05;;;;;;;;;;5033101;28;20041;-80
2022/09/17 06:15:13;;;;;;;9.50;2.00;;;;;;;;;;5043894;28;20382;-80
2022/09/17 06:17:40;;;;;;;7.07;2.40;;;;;;;;;;5041781;28;20089;-81
2022/09/17 06:20:06;;;;;;;5.93;1.98;;;;;;;;;;5046074;28;20927;-81
2022/09/17 06:22:32;;;;;;;4.78;1.90;;;;;;;;;;5049186;28;20049;-81
2022/09/17 06:25:02;;;;;;;6.85;1.85;;;;;;;;;;5047260;28;20076;-81
2022/09/17 06:27:32;;;;;;;4.93;1.60;;;;;;;;;;5046595;28;20049;-81
2022/09/17 06:29:58;;;;;;;6.55;1.63;;;;;;;;;;5049444;28;20052;-82
2022/09/17 06:32:24;;;;;;;7.82;1.90;;;;;;;;;;5046872;28;20404;-81
2022/09/17 06:34:50;;;;;;;8.50;1.60;;;;;;;;;;5043937;28;20051;-81
2022/09/17 06:37:16;;;;;;;9.18;2.17;;;;;;;;;;5047516;28;20041;-80
2022/09/17 06:39:42;;;;;;;8.55;2.08;;;;;;;;;;5043877;28;20125;-79
2022/09/17 06:42:08;;;;;;;5.50;1.70;;;;;;;;;;5049084;28;20044;-81
2022/09/17 06:44:34;;;;;;;7.90;2.15;;;;;;;;;;5047307;28;20045;-80
2022/09/17 06:47:00;;;;;;;12.15;2.40;;;;;;;;;;5050818;28;20049;-80
2022/09/17 06:49:27;;;;;;;7.20;2.33;;;;;;;;;;5043897;28;20053;-80
2022/09/17 06:51:53;;;;;;;7.22;1.88;;;;;;;;;;5041310;28;20057;-81
2022/09/17 06:54:19;;;;;;;4.70;1.80;;;;;;;;;;5062750;28;20044;-81
2022/09/17 06:56:46;;;;;;;5.75;1.85;;;;;;;;;;5045515;28;20132;-81
2022/09/17 06:59:12;;;;;;;7.72;2.30;;;;;;;;;;5045927;28;20503;-80
2022/09/17 07:01:38;;;;;;;10.35;2.67;;;;;;;;;;5046183;28;20077;-79
2022/09/17 07:04:04;;;;;;;21.08;3.60;;;;;;;;;;5045083;28;20043;-78
2022/09/17 07:06:30;;;;;;;7.90;2.10;;;;;;;;;;5045656;28;20404;-79
2022/09/17 07:08:57;;;;;;;7.78;2.10;;;;;;;;;;5042690;28;20052;-79
2022/09/17 07:11:24;;;;;;;7.18;2.10;;;;;;;;;;5045770;28;20076;-78
2022/09/17 07:13:50;;;;;;;6.80;2.00;;;;;;;;;;5046915;28;20739;-78
2022/09/17 07:16:16;;;;;;;7.88;1.80;;;;;;;;;;5045388;28;20049;-79
2022/09/17 07:18:42;;;;;;;8.88;1.98;;;;;;;;;;5047737;28;20037;-79
2022/09/17 07:21:09;;;;;;;9.82;2.30;;;;;;;;;;5045712;28;20128;-79
2022/09/17 07:23:36;;;;;;;5.22;1.80;;;;;;;;;;5048708;28;20094;-79
2022/09/17 07:26:06;;;;;;;7.22;2.03;;;;;;;;;;5045093;28;20114;-79
2022/09/17 07:28:33;;;;;;;8.00;2.10;;;;;;;;;;5042927;28;20464;-79
2022/09/17 07:31:02;;;;;;;10.35;2.08;;;;;;;;;;5044295;28;20057;-80
2022/09/17 07:33:28;;;;;;;7.60;2.33;;;;;;;;;;5046327;28;20047;-80
2022/09/17 07:35:59;;;;;;;8.77;2.15;;;;;;;;;;5039191;28;20072;-80
2022/09/17 07:38:25;;;;;;;7.60;2.15;;;;;;;;;;5047748;28;20045;-80
2022/09/17 07:40:56;;;;;;;6.38;2.15;;;;;;;;;;5048015;28;20045;-81
2022/09/17 07:43:22;;;;;;;7.20;2.25;;;;;;;;;;5049143;28;20193;-80
2022/09/17 07:45:48;;;;;;;6.78;1.92;;;;;;;;;;5043462;28;20764;-78
2022/09/17 07:48:14;;;;;;;16.48;3.08;;;;;;;;;;5050135;28;20076;-78
2022/09/17 07:50:40;;;;;;;14.77;3.33;;;;;;;;;;5039350;28;20137;-76
2022/09/17 07:53:06;;;;;;;16.33;3.33;;;;;;;;;;5045042;28;20138;-77
2022/09/17 07:55:32;;;;;;;16.58;3.15;;;;;;;;;;5043427;28;20052;-77
2022/09/17 07:57:58;;;;;;;14.80;2.80;;;;;;;;;;5048461;28;20037;-78
2022/09/17 08:00:24;;;;;;;14.35;2.65;;;;;;;;;;5049146;28;20053;-77
2022/09/17 08:02:54;;;;;;;6.63;2.30;;;;;;;;;;5047977;28;20040;-77
2022/09/17 08:05:20;;;;;;;11.98;2.50;;;;;;;;;;5045582;28;20048;-81
2022/09/17 08:07:53;;;;;;;10.07;2.75;;;;;;;;;;5048038;28;20045;-81
2022/09/17 08:10:20;;;;;;;11.30;3.25;;;;;;;;;;5050490;28;20068;-81
2022/09/17 08:12:50;;;;;;;6.63;2.05;;;;;;;;;;5046393;28;20049;-77
2022/09/17 08:15:19;;;;;;;5.75;2.08;;;;;;;;;;5049804;28;20045;-80
2022/09/17 08:17:46;;;;;;;12.05;2.35;;;;;;;;;;5048063;28;20060;-79
2022/09/17 08:20:12;;;;;;;16.73;3.30;;;;;;;;;;5051222;28;20067;-80
2022/09/17 08:22:39;;;;;;;14.85;2.65;;;;;;;;;;5037256;28;20048;-80
2022/09/17 08:25:05;;;;;;;17.02;3.08;;;;;;;;;;5047854;28;20067;-77
2022/09/17 08:27:32;;;;;;;12.95;3.00;;;;;;;;;;5045075;28;20052;-78
2022/09/17 08:29:58;;;;;;;9.43;2.60;;;;;;;;;;5055515;28;20527;-78
2022/09/17 08:32:24;;;;;;;9.27;2.17;;;;;;;;;;5047382;28;20542;-78
2022/09/17 08:34:52;;;;;;;9.45;2.53;;;;;;;;;;5047166;28;20041;-79
2022/09/17 08:37:18;;;;;;;14.27;3.47;;;;;;;;;;5048426;28;20047;-78
2022/09/17 08:39:44;;;;;;;8.32;2.22;;;;;;;;;;5048599;28;20045;-80
2022/09/17 08:42:22;;;;;;;8.85;2.33;;;;;;;;;;5048754;28;20041;-80
2022/09/17 08:44:49;;;;;;;7.05;2.15;;;;;;;;;;5043538;28;20474;-80
2022/09/17 08:47:37;;;;;;;9.23;2.40;;;;;;;;;;5047632;28;20037;-78
2022/09/17 08:50:05;;;;;;;9.43;2.03;;;;;;;;;;5045517;28;20469;-80
2022/09/17 08:52:50;;;;;;;8.48;2.28;;;;;;;;;;5047036;28;20051;-80
2022/09/17 08:55:35;;;;;;;7.50;2.08;;;;;;;;;;5042687;28;20072;-79
2022/09/17 08:58:12;;;;;;;7.38;2.20;;;;;;;;;;5048224;28;20108;-80
2022/09/17 09:00:46;;;;;;;8.48;2.35;;;;;;;;;;5044760;28;20045;-80
2022/09/17 09:03:20;;;;;;;8.43;2.15;;;;;;;;;;5046570;28;20111;-81
2022/09/17 09:06:06;;;;;;;8.05;2.08;;;;;;;;;;5050820;28;20067;-80
2022/09/17 09:08:39;;;;;;;6.55;2.05;;;;;;;;;;5046439;28;20037;-81
2022/09/17 09:11:06;;;;;;;7.85;1.95;;;;;;;;;;5045610;28;20062;-80
2022/09/17 09:13:35;;;;;;;9.38;2.30;;;;;;;;;;5044904;28;20037;-80
2022/09/17 09:16:03;;;;;;;8.07;2.35;;;;;;;;;;5048457;28;20052;-79
2022/09/17 09:18:30;;;;;;;11.38;2.53;;;;;;;;;;5046983;28;20060;-80
2022/09/17 09:21:06;;;;;;;8.43;2.63;;;;;;;;;;5048163;28;20044;-79
2022/09/17 09:23:47;;;;;;;10.07;2.65;;;;;;;;;;5044785;28;20045;-81
2022/09/17 09:26:17;;;;;;;10.00;2.58;;;;;;;;;;5047490;28;20404;-80
2022/09/17 09:28:43;;;;;;;9.70;2.30;;;;;;;;;;5041258;28;20123;-80
2022/09/17 09:31:28;;;;;;;10.52;2.42;;;;;;;;;;5047331;28;20553;-81
2022/09/17 09:33:55;;;;;;;9.65;2.15;;;;;;;;;;5047639;28;20044;-80
2022/09/17 09:36:21;;;;;;;10.55;2.33;;;;;;;;;;5040631;28;20492;-80
2022/09/17 09:38:56;;;;;;;6.53;1.70;;;;;;;;;;5048738;28;20041;-81
2022/09/17 09:41:26;;;;;;;7.45;1.80;;;;;;;;;;5047024;28;20044;-81
2022/09/17 09:43:57;;;;;;;5.13;1.77;;;;;;;;;;5042717;28;20041;-81
2022/09/17 09:46:41;;;;;;;5.75;1.80;;;;;;;;;;5048130;28;20071;-81
2022/09/17 09:49:13;;;;;;;5.10;1.58;;;;;;;;;;5042117;28;20489;-80
2022/09/17 09:51:39;;;;;;;7.10;2.17;;;;;;;;;;5045362;28;20200;-83
2022/09/17 09:54:16;;;;;;;8.02;2.65;;;;;;;;;;5046967;28;20054;-83
2022/09/17 09:56:57;;;;;;;6.60;1.98;;;;;;;;;;5047195;28;20049;-85
2022/09/17 09:59:23;;;;;;;5.78;1.70;;;;;;;;;;5047243;28;20489;-84
2022/09/17 10:01:49;;;;;;;6.93;1.88;;;;;;;;;;5047027;28;20132;-81
2022/09/17 10:04:20;;;;;;;6.18;1.83;;;;;;;;;;5038863;28;20087;-90
2022/09/17 10:06:49;;;;;;;5.40;1.75;;;;;;;;;;5043050;28;20029;-82
2022/09/17 10:09:16;;;;;;;6.00;1.85;;;;;;;;;;5046315;28;20048;-82
2022/09/17 10:11:43;;;;;;;7.25;2.10;;;;;;;;;;5046941;28;20515;-83
2022/09/17 10:14:18;;;;;;;6.88;2.40;;;;;;;;;;5045631;28;20385;-82
2022/09/17 10:16:44;;;;;;;8.05;1.77;;;;;;;;;;5046085;28;20558;-82
2022/09/17 10:19:19;;;;;;;6.65;1.80;;;;;;;;;;5042998;28;20048;-82
2022/09/17 10:21:45;;;;;;;5.85;1.77;;;;;;;;;;5048567;28;20037;-84
2022/09/17 10:24:25;;;;;;;5.72;1.80;;;;;;;;;;5039971;28;20041;-81
2022/09/17 10:26:52;;;;;;;7.28;1.90;;;;;;;;;;5044522;28;20045;-82
2022/09/17 10:29:19;;;;;;;6.82;2.47;;;;;;;;;;5048280;28;20037;-82
2022/09/17 10:31:52;;;;;;;11.38;2.28;;;;;;;;;;5043417;28;20528;-82
2022/09/17 10:34:18;;;;;;;;;;;;;;;;;;5049090;28;20041;-81
2022/09/17 10:36:45;;;;;;;9.93;2.42;;;;;;;;;;5047951;28;19920;-82
2022/09/17 10:39:23;;;;;;;7.78;2.15;;;;;;;;;;5047610;28;20060;-81
2022/09/17 10:41:59;;;;;;;10.88;2.35;;;;;;;;;;5048921;28;20150;-82
2022/09/17 10:44:27;;;;;;;9.02;2.20;;;;;;;;;;5047046;28;20720;-81
2022/09/17 10:46:53;;;;;;;8.10;2.17;;;;;;;;;;5046732;28;20044;-82
2022/09/17 10:49:36;;;;;;;4.43;1.90;;;;;;;;;;5047142;28;20085;-80
2022/09/17 10:52:06;;;;;;;10.52;2.20;;;;;;;;;;5045906;28;20064;-80
2022/09/17 10:54:35;;;;;;;7.28;2.30;;;;;;;;;;5047204;28;20485;-84
2022/09/17 10:57:01;;;;;;;8.93;2.20;;;;;;;;;;5047350;28;20048;-82
2022/09/17 10:59:27;;;;;;;10.52;2.10;;;;;;;;;;5046456;28;20459;-83
2022/09/17 11:02:05;;;;;;;8.40;2.25;;;;;;;;;;5040941;28;20075;-81
2022/09/17 11:04:40;;;;;;;8.80;2.85;;;;;;;;;;5046310;28;20495;-83
2022/09/17 11:07:36;;;;;;;12.75;2.88;;;;;;;;;;5045824;28;20041;-81
2022/09/17 11:10:06;;;;;;;13.88;3.70;;;;;;;;;;5028607;28;20054;-81
2022/09/17 11:12:41;;;;;;;8.32;2.50;;;;;;;;;;5044855;28;20076;-83
2022/09/17 11:15:10;;;;;;;9.02;2.20;;;;;;;;;;5048806;28;20472;-82
2022/09/17 11:17:58;;;;;;;7.22;2.17;;;;;;;;;;5049019;28;20072;-82
2022/09/17 11:20:36;;;;;;;5.82;1.90;;;;;;;;;;5048554;28;20037;-82
2022/09/17 11:23:17;;;;;;;8.05;2.10;;;;;;;;;;5049166;28;20465;-82
2022/09/17 11:25:57;;;;;;;10.27;2.25;;;;;;;;;;5048855;28;20044;-83
2022/09/17 11:28:42;;;;;;;9.38;2.20;;;;;;;;;;5047335;28;20133;-83
2022/09/17 11:31:20;;;;;;;11.95;3.35;;;;;;;;;;5050597;28;20037;-82
2022/09/17 11:33:49;;;;;;;9.85;2.47;;;;;;;;;;5047790;28;20714;-83
2022/09/17 11:36:19;;;;;;;7.05;2.25;;;;;;;;;;5051044;28;20045;-83
2022/09/17 11:38:48;;;;;;;3.67;1.67;;;;;;;;;;5052090;28;20041;-82
2022/09/17 11:41:17;;;;;;;6.38;1.85;;;;;;;;;;5049407;28;20099;-82
2022/09/17 11:43:50;;;;;;;8.95;2.20;;;;;;;;;;5050712;28;20423;-83
2022/09/17 11:46:18;;;;;;;11.05;2.80;;;;;;;;;;5044286;28;20037;-82
2022/09/17 11:48:47;;;;;;;11.30;3.05;;;;;;;;;;5045210;28;20457;-81
2022/09/17 11:51:13;;;;;;;11.95;3.10;;;;;;;;;;5049912;28;20061;-81
2022/09/17 11:53:42;;;;;;;9.25;2.63;;;;;;;;;;5051902;28;20045;-82
2022/09/17 11:56:22;;;;;;;8.35;2.25;;;;;;;;;;5049456;28;20106;-82
2022/09/17 11:58:53;;;;;;;10.98;2.53;;;;;;;;;;5051219;28;20045;-81
2022/09/17 12:01:40;;;;;;;6.72;2.22;;;;;;;;;;5048428;28;20052;-82
2022/09/17 12:04:25;;;;;;;7.57;2.65;;;;;;;;;;5049391;28;20060;-82
2022/09/17 12:06:57;;;;;;;9.07;2.35;;;;;;;;;;5048210;28;20064;-82
2022/09/17 12:09:25;;;;;;;8.52;2.75;;;;;;;;;;5051240;28;20171;-82
2022/09/17 12:12:01;;;;;;;8.13;2.17;;;;;;;;;;5051101;28;20044;-81
2022/09/17 12:14:30;;;;;;;6.90;2.05;;;;;;;;;;5046538;28;20400;-83
2022/09/17 12:16:57;;;;;;;9.05;2.42;;;;;;;;;;5048076;28;20049;-81
2022/09/17 12:19:43;;;;;;;9.43;2.85;;;;;;;;;;5048244;28;20551;-81
2022/09/17 12:22:15;;;;;;;9.55;2.33;;;;;;;;;;5048508;28;20091;-83
2022/09/17 12:24:42;;;;;;;7.25;2.13;;;;;;;;;;5049499;28;20128;-81
2022/09/17 12:27:20;;;;;;;6.07;2.15;;;;;;;;;;5048271;28;20090;-84
2022/09/17 12:30:02;;;;;;;5.00;1.67;;;;;;;;;;5043957;28;20112;-83
2022/09/17 12:32:45;;;;;;;3.45;1.63;;;;;;;;;;5049628;28;20042;-83
2022/09/17 12:35:30;;;;;;;4.30;1.80;;;;;;;;;;5051552;28;20484;-82
2022/09/17 12:38:02;;;;;;;9.80;1.95;;;;;;;;;;5044387;28;20107;-83
2022/09/17 12:40:37;;;;;;;9.50;2.00;;;;;;;;;;5049813;28;20079;-81
2022/09/17 12:43:15;;;;;;;5.05;1.88;;;;;;;;;;5049262;28;20190;-82
2022/09/17 12:45:44;;;;;;;7.03;1.90;;;;;;;;;;5049376;28;20044;-82
2022/09/17 12:48:25;;;;;;;15.00;5.97;;;;;;;;;;5040380;28;20396;-80
2022/09/17 12:51:11;;;;;;;11.10;2.58;;;;;;;;;;5049946;28;20049;-81
2022/09/17 12:53:42;;;;;;;11.35;2.45;;;;;;;;;;5046782;28;20053;-81
2022/09/17 12:56:24;;;;;;;13.30;3.25;;;;;;;;;;5048951;28;20041;-81
2022/09/17 12:58:56;;;;;;;3.97;1.70;;;;;;;;;;5045275;28;20637;-82
2022/09/17 13:01:33;;;;;;;4.70;1.73;;;;;;;;;;5048309;28;20543;-82
2022/09/17 13:04:18;;;;;;;8.07;2.40;;;;;;;;;;5048534;28;20045;-83
2022/09/17 13:07:12;;;;;;;12.52;2.85;;;;;;;;;;5049171;28;20154;-83
2022/09/17 13:09:53;;;;;;;11.15;2.33;;;;;;;;;;5049249;28;20066;-82
2022/09/17 13:12:34;;;;;;;7.50;2.00;;;;;;;;;;5047346;28;20496;-81
2022/09/17 13:15:03;;;;;;;8.55;1.98;;;;;;;;;;5047264;28;20044;-82
2022/09/17 13:17:48;;;;;;;9.13;2.17;;;;;;;;;;5048499;28;20451;-82
2022/09/17 13:20:14;;;;;;;7.90;2.42;;;;;;;;;;5046856;28;20067;-83
2022/09/17 13:22:48;;;;;;;6.38;2.03;;;;;;;;;;5047462;28;20045;-82
2022/09/17 13:25:15;;;;;;;13.88;3.25;;;;;;;;;;5047004;28;20077;-82
2022/09/17 13:27:42;;;;;;;14.63;3.22;;;;;;;;;;5048791;28;20043;-81
2022/09/17 13:30:09;;;;;;;15.40;3.70;;;;;;;;;;5047361;28;20477;-81
2022/09/17 13:32:36;;;;;;;20.10;3.60;;;;;;;;;;5047706;28;20057;-82
2022/09/17 13:35:11;;;;;;;13.63;3.03;;;;;;;;;;5046587;28;20049;-81
2022/09/17 13:37:44;;;;;;;12.18;2.63;;;;;;;;;;5047968;28;20781;-81
2022/09/17 13:40:28;;;;;;;18.65;3.05;;;;;;;;;;5046992;28;20056;-82
2022/09/17 13:42:56;;;;;;;8.85;2.35;;;;;;;;;;5047399;28;20044;-80
2022/09/17 13:45:22;;;;;;;15.52;3.65;;;;;;;;;;5049829;28;20052;-80
2022/09/17 13:47:52;;;;;;;11.50;3.05;;;;;;;;;;5048260;28;20072;-81
2022/09/17 13:50:29;;;;;;;10.43;2.60;;;;;;;;;;5042255;28;20495;-80
2022/09/17 13:52:57;;;;;;;10.02;2.22;;;;;;;;;;5049012;28;21762;-81
2022/09/17 13:55:35;;;;;;;10.02;2.85;;;;;;;;;;5041541;28;20049;-81
2022/09/17 13:58:03;;;;;;;9.35;2.50;;;;;;;;;;5048088;28;20049;-82
2022/09/17 14:00:47;;;;;;;7.80;2.10;;;;;;;;;;5048823;28;20106;-83
2022/09/17 14:03:43;;;;;;;10.40;2.25;;;;;;;;;;5043541;28;20504;-83
2022/09/17 14:06:17;;;;;;;11.82;2.90;;;;;;;;;;5048084;28;20125;-82
2022/09/17 14:08:46;;;;;;;8.25;2.50;;;;;;;;;;5047292;28;20055;-82
2022/09/17 14:11:26;;;;;;;13.32;2.72;;;;;;;;;;5041284;28;20408;-81
2022/09/17 14:13:54;;;;;;;6.57;2.42;;;;;;;;;;5047133;28;20500;-81
2022/09/17 14:16:34;;;;;;;6.15;2.55;;;;;;;;;;5042536;28;20045;-83
2022/09/17 14:19:03;;;;;;;7.15;2.50;;;;;;;;;;5048239;28;20073;-83
2022/09/17 14:21:31;;;;;;;9.25;2.60;;;;;;;;;;5047871;28;20045;-82
2022/09/17 14:24:01;;;;;;;6.35;2.00;;;;;;;;;;5045726;28;20227;-83
2022/09/17 14:26:52;;;;;;;5.88;2.10;;;;;;;;;;5047551;28;20053;-82
2022/09/17 14:29:18;;;;;;;7.32;2.63;;;;;;;;;;5042157;28;20079;-82
2022/09/17 14:31:44;;;;;;;8.75;2.30;;;;;;;;;;5042050;28;20056;-82
2022/09/17 14:34:16;;;;;;;4.10;1.90;;;;;;;;;;5046256;28;20037;-82
2022/09/17 14:36:42;;;;;;;8.02;2.30;;;;;;;;;;5047780;28;20075;-82
2022/09/17 14:39:17;;;;;;;7.13;2.20;;;;;;;;;;5044192;28;20037;-82
2022/09/17 14:41:45;;;;;;;6.10;1.98;;;;;;;;;;5047984;28;20059;-84
2022/09/17 14:44:21;;;;;;;5.53;2.17;;;;;;;;;;5044699;28;20544;-84
2022/09/17 14:46:50;;;;;;;6.80;2.10;;;;;;;;;;5041680;28;20053;-83
2022/09/17 14:49:24;;;;;;;7.85;2.30;;;;;;;;;;5046536;28;20124;-81
2022/09/17 14:51:51;;;;;;;6.78;1.92;;;;;;;;;;5041754;28;20060;-82
2022/09/17 14:54:17;;;;;;;10.95;2.50;;;;;;;;;;5042996;28;20052;-82
2022/09/17 14:56:48;;;;;;;8.45;2.25;;;;;;;;;;5049015;28;20106;-82
2022/09/17 14:59:20;;;;;;;6.40;2.10;;;;;;;;;;5044697;28;20059;-82